sensor_id;sensor_type;location;lat;lon;timestamp;pressure;altitude;pressure_sealevel;temperature;humidity
55755;BME280;41674;52.290;-1.474;2023-08-12T00:02:24;100842.52;;;20.31;60.25
55755;BME280;41674;52.290;-1.474;2023-08-12T00:04:54;100842.12;;;20.68;58.63
55755;BME280;41674;52.290;-1.474;2023-08-12T00:07:23;100837.47;;;20.56;57.76
55755;BME280;41674;52.290;-1.474;2023-08-12T00:09:53;100836.69;;;20.26;58.52
55755;BME280;41674;52.290;-1.474;2023-08-12T00:12:22;100835.35;;;20.16;57.73
55755;BME280;41674;52.290;-1.474;2023-08-12T00:14:52;100828.87;;;20.83;56.96
55755;BME280;41674;52.290;-1.474;2023-08-12T00:17:22;100835.56;;;20.03;57.59
55755;BME280;41674;52.290;-1.474;2023-08-12T00:19:51;100830.04;;;20.73;56.72
55755;BME280;41674;52.290;-1.474;2023-08-12T00:22:22;100829.71;;;20.55;57.55
55755;BME280;41674;52.290;-1.474;2023-08-12T00:24:51;100832.00;;;20.11;59.99
55755;BME280;41674;52.290;-1.474;2023-08-12T00:27:20;100830.14;;;19.93;60.75
55755;BME280;41674;52.290;-1.474;2023-08-12T00:29:49;100828.45;;;20.45;61.24
55755;BME280;41674;52.290;-1.474;2023-08-12T00:32:19;100828.63;;;19.80;61.56
55755;BME280;41674;52.290;-1.474;2023-08-12T00:34:48;100820.63;;;19.22;63.02
55755;BME280;41674;52.290;-1.474;2023-08-12T00:37:18;100822.34;;;17.00;71.97
55755;BME280;41674;52.290;-1.474;2023-08-12T00:39:47;100815.57;;;18.16;70.33
55755;BME280;41674;52.290;-1.474;2023-08-12T00:42:17;100808.64;;;18.42;67.99
55755;BME280;41674;52.290;-1.474;2023-08-12T00:44:46;100803.50;;;18.56;66.94
55755;BME280;41674;52.290;-1.474;2023-08-12T00:47:16;100801.43;;;19.25;65.34
55755;BME280;41674;52.290;-1.474;2023-08-12T00:49:45;100804.95;;;18.74;66.35
55755;BME280;41674;52.290;-1.474;2023-08-12T00:52:15;100806.74;;;19.18;66.51
55755;BME280;41674;52.290;-1.474;2023-08-12T00:54:44;100809.56;;;19.17;67.01
55755;BME280;41674;52.290;-1.474;2023-08-12T00:57:14;100804.95;;;19.11;68.93
55755;BME280;41674;52.290;-1.474;2023-08-12T00:59:44;100803.59;;;18.82;70.37
55755;BME280;41674;52.290;-1.474;2023-08-12T01:02:13;100802.30;;;17.50;75.53
55755;BME280;41674;52.290;-1.474;2023-08-12T01:04:43;100793.30;;;18.54;72.59
55755;BME280;41674;52.290;-1.474;2023-08-12T01:07:12;100795.48;;;19.09;71.37
55755;BME280;41674;52.290;-1.474;2023-08-12T01:09:41;100793.43;;;18.36;74.21
55755;BME280;41674;52.290;-1.474;2023-08-12T01:12:15;100790.15;;;18.62;73.61
55755;BME280;41674;52.290;-1.474;2023-08-12T01:14:49;100792.31;;;17.90;75.88
55755;BME280;41674;52.290;-1.474;2023-08-12T01:17:11;100789.42;;;17.69;77.19
55755;BME280;41674;52.290;-1.474;2023-08-12T01:19:41;100787.65;;;17.57;79.59
55755;BME280;41674;52.290;-1.474;2023-08-12T01:22:11;100792.67;;;17.30;82.66
55755;BME280;41674;52.290;-1.474;2023-08-12T01:24:40;100788.61;;;17.57;81.97
55755;BME280;41674;52.290;-1.474;2023-08-12T01:27:10;100786.79;;;17.71;82.55
55755;BME280;41674;52.290;-1.474;2023-08-12T01:29:41;100785.32;;;17.67;81.97
55755;BME280;41674;52.290;-1.474;2023-08-12T01:32:11;100785.10;;;17.71;80.96
55755;BME280;41674;52.290;-1.474;2023-08-12T01:34:42;100787.70;;;17.34;81.81
55755;BME280;41674;52.290;-1.474;2023-08-12T01:37:09;100785.81;;;17.58;82.51
55755;BME280;41674;52.290;-1.474;2023-08-12T01:39:37;100783.51;;;16.44;86.32
55755;BME280;41674;52.290;-1.474;2023-08-12T01:42:06;100781.33;;;17.42;84.64
55755;BME280;41674;52.290;-1.474;2023-08-12T01:44:35;100782.36;;;16.65;90.00
55755;BME280;41674;52.290;-1.474;2023-08-12T01:47:07;100779.63;;;16.49;91.13
55755;BME280;41674;52.290;-1.474;2023-08-12T01:49:34;100778.36;;;17.17;88.47
55755;BME280;41674;52.290;-1.474;2023-08-12T01:52:04;100777.01;;;16.51;89.91
55755;BME280;41674;52.290;-1.474;2023-08-12T01:54:33;100780.01;;;15.86;94.05
55755;BME280;41674;52.290;-1.474;2023-08-12T01:57:04;100774.92;;;16.03;93.43
55755;BME280;41674;52.290;-1.474;2023-08-12T01:59:32;100763.36;;;16.20;92.05
55755;BME280;41674;52.290;-1.474;2023-08-12T02:02:03;100764.26;;;15.56;93.75
55755;BME280;41674;52.290;-1.474;2023-08-12T02:04:32;100754.37;;;16.44;91.02
55755;BME280;41674;52.290;-1.474;2023-08-12T02:07:01;100752.41;;;15.92;92.77
55755;BME280;41674;52.290;-1.474;2023-08-12T02:09:31;100753.31;;;16.25;91.18
55755;BME280;41674;52.290;-1.474;2023-08-12T02:12:00;100757.35;;;15.60;95.62
55755;BME280;41674;52.290;-1.474;2023-08-12T02:14:30;100758.41;;;15.67;93.57
55755;BME280;41674;52.290;-1.474;2023-08-12T02:16:59;100757.44;;;15.76;93.37
55755;BME280;41674;52.290;-1.474;2023-08-12T02:19:29;100753.56;;;15.22;94.96
55755;BME280;41674;52.290;-1.474;2023-08-12T02:21:59;100752.18;;;14.80;95.73
55755;BME280;41674;52.290;-1.474;2023-08-12T02:24:28;100744.20;;;15.60;93.17
55755;BME280;41674;52.290;-1.474;2023-08-12T02:26:58;100736.71;;;15.96;90.75
55755;BME280;41674;52.290;-1.474;2023-08-12T02:29:27;100741.68;;;15.55;93.53
55755;BME280;41674;52.290;-1.474;2023-08-12T02:31:57;100744.96;;;14.91;96.34
55755;BME280;41674;52.290;-1.474;2023-08-12T02:34:26;100744.49;;;15.19;94.31
55755;BME280;41674;52.290;-1.474;2023-08-12T02:36:56;100742.29;;;15.01;97.34
55755;BME280;41674;52.290;-1.474;2023-08-12T02:39:26;100743.53;;;14.81;97.70
55755;BME280;41674;52.290;-1.474;2023-08-12T02:41:55;100743.55;;;14.77;97.70
55755;BME280;41674;52.290;-1.474;2023-08-12T02:44:25;100738.98;;;15.38;93.39
55755;BME280;41674;52.290;-1.474;2023-08-12T02:46:55;100732.47;;;15.27;93.47
55755;BME280;41674;52.290;-1.474;2023-08-12T02:49:24;100735.12;;;14.59;97.03
55755;BME280;41674;52.290;-1.474;2023-08-12T02:51:54;100730.53;;;14.17;100.00
55755;BME280;41674;52.290;-1.474;2023-08-12T02:54:23;100730.84;;;15.22;95.75
55755;BME280;41674;52.290;-1.474;2023-08-12T02:56:53;100723.46;;;15.56;93.16
55755;BME280;41674;52.290;-1.474;2023-08-12T02:59:22;100725.04;;;15.74;92.97
55755;BME280;41674;52.290;-1.474;2023-08-12T03:01:52;100724.57;;;16.06;91.59
55755;BME280;41674;52.290;-1.474;2023-08-12T03:04:22;100724.05;;;16.15;90.86
55755;BME280;41674;52.290;-1.474;2023-08-12T03:06:51;100728.94;;;15.60;91.17
55755;BME280;41674;52.290;-1.474;2023-08-12T03:09:22;100724.73;;;15.95;89.91
55755;BME280;41674;52.290;-1.474;2023-08-12T03:11:49;100724.42;;;15.93;90.83
55755;BME280;41674;52.290;-1.474;2023-08-12T03:14:19;100720.84;;;16.19;89.47
55755;BME280;41674;52.290;-1.474;2023-08-12T03:16:48;100720.04;;;16.08;89.05
55755;BME280;41674;52.290;-1.474;2023-08-12T03:19:18;100717.48;;;15.50;90.88
55755;BME280;41674;52.290;-1.474;2023-08-12T03:21:48;100718.66;;;14.93;94.77
55755;BME280;41674;52.290;-1.474;2023-08-12T03:24:18;100716.21;;;15.11;93.77
55755;BME280;41674;52.290;-1.474;2023-08-12T03:26:47;100705.36;;;15.65;91.71
55755;BME280;41674;52.290;-1.474;2023-08-12T03:29:16;100700.92;;;15.48;91.12
55755;BME280;41674;52.290;-1.474;2023-08-12T03:31:46;100707.31;;;14.85;94.84
55755;BME280;41674;52.290;-1.474;2023-08-12T03:34:15;100706.72;;;14.66;97.25
55755;BME280;41674;52.290;-1.474;2023-08-12T03:36:45;100705.14;;;14.79;96.95
55755;BME280;41674;52.290;-1.474;2023-08-12T03:39:15;100701.23;;;14.94;93.58
55755;BME280;41674;52.290;-1.474;2023-08-12T03:41:44;100698.40;;;14.09;98.33
55755;BME280;41674;52.290;-1.474;2023-08-12T03:44:14;100700.35;;;14.64;95.60
55755;BME280;41674;52.290;-1.474;2023-08-12T03:46:44;100700.01;;;14.81;95.96
55755;BME280;41674;52.290;-1.474;2023-08-12T03:49:13;100696.74;;;14.80;95.84
55755;BME280;41674;52.290;-1.474;2023-08-12T03:51:42;100688.33;;;15.19;94.54
55755;BME280;41674;52.290;-1.474;2023-08-12T03:54:13;100684.64;;;15.11;95.31
55755;BME280;41674;52.290;-1.474;2023-08-12T03:56:41;100680.30;;;14.81;93.22
55755;BME280;41674;52.290;-1.474;2023-08-12T03:59:11;100674.98;;;15.19;94.88
55755;BME280;41674;52.290;-1.474;2023-08-12T04:01:41;100670.61;;;15.14;91.58
55755;BME280;41674;52.290;-1.474;2023-08-12T04:04:10;100674.48;;;14.98;93.32
55755;BME280;41674;52.290;-1.474;2023-08-12T04:06:39;100678.99;;;14.49;96.00
55755;BME280;41674;52.290;-1.474;2023-08-12T04:09:09;100667.71;;;14.61;93.71
55755;BME280;41674;52.290;-1.474;2023-08-12T04:11:39;100657.43;;;15.08;91.53
55755;BME280;41674;52.290;-1.474;2023-08-12T04:14:08;100654.83;;;15.09;90.36
55755;BME280;41674;52.290;-1.474;2023-08-12T04:16:38;100651.07;;;15.93;88.92
55755;BME280;41674;52.290;-1.474;2023-08-12T04:19:08;100648.61;;;15.83;88.99
55755;BME280;41674;52.290;-1.474;2023-08-12T04:21:37;100649.49;;;15.28;90.65
55755;BME280;41674;52.290;-1.474;2023-08-12T04:24:08;100648.05;;;15.01;92.26
55755;BME280;41674;52.290;-1.474;2023-08-12T04:26:36;100651.85;;;14.87;94.49
55755;BME280;41674;52.290;-1.474;2023-08-12T04:29:06;100645.55;;;15.18;92.66
55755;BME280;41674;52.290;-1.474;2023-08-12T04:31:36;100648.88;;;15.07;94.29
55755;BME280;41674;52.290;-1.474;2023-08-12T04:34:05;100642.92;;;15.32;93.21
55755;BME280;41674;52.290;-1.474;2023-08-12T04:36:34;100641.28;;;14.92;94.23
55755;BME280;41674;52.290;-1.474;2023-08-12T04:39:04;100643.33;;;14.60;96.42
55755;BME280;41674;52.290;-1.474;2023-08-12T04:41:34;100638.48;;;15.29;93.73
55755;BME280;41674;52.290;-1.474;2023-08-12T04:44:04;100634.60;;;15.03;92.32
55755;BME280;41674;52.290;-1.474;2023-08-12T04:46:33;100639.36;;;14.89;94.67
55755;BME280;41674;52.290;-1.474;2023-08-12T04:49:02;100642.43;;;15.00;94.30
55755;BME280;41674;52.290;-1.474;2023-08-12T04:51:32;100643.54;;;15.58;90.77
55755;BME280;41674;52.290;-1.474;2023-08-12T04:54:03;100647.42;;;15.19;93.51
55755;BME280;41674;52.290;-1.474;2023-08-12T04:56:31;100640.87;;;15.54;89.80
55755;BME280;41674;52.290;-1.474;2023-08-12T04:59:01;100638.26;;;14.68;94.10
55755;BME280;41674;52.290;-1.474;2023-08-12T05:01:30;100637.23;;;15.18;93.08
55755;BME280;41674;52.290;-1.474;2023-08-12T05:04:00;100632.92;;;15.21;91.19
55755;BME280;41674;52.290;-1.474;2023-08-12T05:06:29;100641.26;;;14.21;95.33
55755;BME280;41674;52.290;-1.474;2023-08-12T05:08:59;100635.32;;;14.80;94.72
55755;BME280;41674;52.290;-1.474;2023-08-12T05:11:29;100639.22;;;15.19;91.97
55755;BME280;41674;52.290;-1.474;2023-08-12T05:13:58;100641.86;;;15.52;91.04
55755;BME280;41674;52.290;-1.474;2023-08-12T05:16:27;100639.54;;;15.78;89.72
55755;BME280;41674;52.290;-1.474;2023-08-12T05:18:57;100642.69;;;15.10;92.43
55755;BME280;41674;52.290;-1.474;2023-08-12T05:21:27;100644.81;;;15.96;89.58
55755;BME280;41674;52.290;-1.474;2023-08-12T05:23:56;100642.76;;;15.25;92.85
55755;BME280;41674;52.290;-1.474;2023-08-12T05:26:26;100646.92;;;14.89;96.31
55755;BME280;41674;52.290;-1.474;2023-08-12T05:28:56;100639.49;;;15.08;95.40
55755;BME280;41674;52.290;-1.474;2023-08-12T05:31:26;100637.28;;;15.59;93.74
55755;BME280;41674;52.290;-1.474;2023-08-12T05:33:55;100643.40;;;14.99;96.73
55755;BME280;41674;52.290;-1.474;2023-08-12T05:36:24;100647.81;;;14.46;98.53
55755;BME280;41674;52.290;-1.474;2023-08-12T05:38:54;100641.66;;;15.47;94.21
55755;BME280;41674;52.290;-1.474;2023-08-12T05:41:24;100638.62;;;15.17;94.75
55755;BME280;41674;52.290;-1.474;2023-08-12T05:43:53;100631.84;;;15.79;91.34
55755;BME280;41674;52.290;-1.474;2023-08-12T05:46:23;100628.87;;;16.06;90.43
55755;BME280;41674;52.290;-1.474;2023-08-12T05:48:52;100633.34;;;15.50;92.37
55755;BME280;41674;52.290;-1.474;2023-08-12T05:51:23;100627.56;;;15.77;92.72
55755;BME280;41674;52.290;-1.474;2023-08-12T05:53:52;100626.47;;;15.95;92.92
55755;BME280;41674;52.290;-1.474;2023-08-12T05:56:22;100622.09;;;15.04;96.03
55755;BME280;41674;52.290;-1.474;2023-08-12T05:58:51;100617.61;;;15.71;94.20
55755;BME280;41674;52.290;-1.474;2023-08-12T06:01:20;100616.21;;;14.90;95.99
55755;BME280;41674;52.290;-1.474;2023-08-12T06:03:50;100613.22;;;15.88;93.35
55755;BME280;41674;52.290;-1.474;2023-08-12T06:06:19;100615.58;;;15.66;94.40
55755;BME280;41674;52.290;-1.474;2023-08-12T06:08:48;100617.84;;;15.45;95.51
55755;BME280;41674;52.290;-1.474;2023-08-12T06:11:18;100613.48;;;15.46;94.78
55755;BME280;41674;52.290;-1.474;2023-08-12T06:13:48;100611.69;;;15.75;93.16
55755;BME280;41674;52.290;-1.474;2023-08-12T06:16:17;100611.67;;;15.49;93.78
55755;BME280;41674;52.290;-1.474;2023-08-12T06:18:47;100609.28;;;15.88;93.11
55755;BME280;41674;52.290;-1.474;2023-08-12T06:21:16;100609.92;;;15.18;98.80
55755;BME280;41674;52.290;-1.474;2023-08-12T06:23:46;100614.20;;;15.22;97.99
55755;BME280;41674;52.290;-1.474;2023-08-12T06:26:15;100613.96;;;15.68;96.59
55755;BME280;41674;52.290;-1.474;2023-08-12T06:28:45;100616.72;;;16.02;94.36
55755;BME280;41674;52.290;-1.474;2023-08-12T06:31:14;100618.00;;;16.33;95.46
55755;BME280;41674;52.290;-1.474;2023-08-12T06:33:43;100616.63;;;16.35;93.95
55755;BME280;41674;52.290;-1.474;2023-08-12T06:36:13;100616.78;;;16.53;93.12
55755;BME280;41674;52.290;-1.474;2023-08-12T06:38:42;100613.43;;;16.23;93.08
55755;BME280;41674;52.290;-1.474;2023-08-12T06:41:12;100615.01;;;15.45;98.02
55755;BME280;41674;52.290;-1.474;2023-08-12T06:43:42;100616.13;;;15.83;96.68
55755;BME280;41674;52.290;-1.474;2023-08-12T06:46:11;100612.99;;;15.95;97.14
55755;BME280;41674;52.290;-1.474;2023-08-12T06:48:41;100609.44;;;15.82;97.47
55755;BME280;41674;52.290;-1.474;2023-08-12T06:51:10;100603.26;;;16.03;95.90
55755;BME280;41674;52.290;-1.474;2023-08-12T06:53:40;100600.32;;;15.61;96.58
55755;BME280;41674;52.290;-1.474;2023-08-12T06:56:10;100601.50;;;15.59;98.43
55755;BME280;41674;52.290;-1.474;2023-08-12T06:58:39;100609.55;;;15.01;100.00
55755;BME280;41674;52.290;-1.474;2023-08-12T07:01:08;100603.99;;;14.80;100.00
55755;BME280;41674;52.290;-1.474;2023-08-12T07:03:38;100600.71;;;15.29;100.00
55755;BME280;41674;52.290;-1.474;2023-08-12T07:06:08;100600.80;;;15.43;97.47
55755;BME280;41674;52.290;-1.474;2023-08-12T07:08:38;100600.99;;;15.81;97.79
55755;BME280;41674;52.290;-1.474;2023-08-12T07:11:07;100595.10;;;15.86;97.16
55755;BME280;41674;52.290;-1.474;2023-08-12T07:13:36;100603.20;;;15.63;99.42
55755;BME280;41674;52.290;-1.474;2023-08-12T07:16:06;100603.08;;;15.92;97.32
55755;BME280;41674;52.290;-1.474;2023-08-12T07:18:35;100598.81;;;15.87;96.11
55755;BME280;41674;52.290;-1.474;2023-08-12T07:21:06;100601.83;;;15.93;95.57
55755;BME280;41674;52.290;-1.474;2023-08-12T07:23:35;100608.67;;;16.18;94.50
55755;BME280;41674;52.290;-1.474;2023-08-12T07:26:04;100615.82;;;16.13;93.56
55755;BME280;41674;52.290;-1.474;2023-08-12T07:28:34;100615.43;;;15.90;94.08
55755;BME280;41674;52.290;-1.474;2023-08-12T07:31:03;100620.32;;;16.56;93.17
55755;BME280;41674;52.290;-1.474;2023-08-12T07:33:33;100623.22;;;16.11;93.92
55755;BME280;41674;52.290;-1.474;2023-08-12T07:36:03;100613.44;;;16.81;91.68
55755;BME280;41674;52.290;-1.474;2023-08-12T07:38:32;100613.75;;;16.69;90.01
55755;BME280;41674;52.290;-1.474;2023-08-12T07:41:02;100611.62;;;17.15;89.20
55755;BME280;41674;52.290;-1.474;2023-08-12T07:43:31;100604.00;;;17.32;87.84
55755;BME280;41674;52.290;-1.474;2023-08-12T07:46:00;100614.48;;;15.80;95.49
55755;BME280;41674;52.290;-1.474;2023-08-12T07:48:30;100603.34;;;16.36;93.82
55755;BME280;41674;52.290;-1.474;2023-08-12T07:51:00;100606.83;;;16.50;94.06
55755;BME280;41674;52.290;-1.474;2023-08-12T07:53:29;100601.13;;;16.20;93.65
55755;BME280;41674;52.290;-1.474;2023-08-12T07:55:59;100594.48;;;17.44;89.49
55755;BME280;41674;52.290;-1.474;2023-08-12T07:58:29;100597.97;;;16.73;92.07
55755;BME280;41674;52.290;-1.474;2023-08-12T08:00:58;100600.76;;;16.03;94.54
55755;BME280;41674;52.290;-1.474;2023-08-12T08:03:28;100597.41;;;16.38;93.92
55755;BME280;41674;52.290;-1.474;2023-08-12T08:05:57;100594.08;;;16.71;91.89
55755;BME280;41674;52.290;-1.474;2023-08-12T08:08:27;100595.59;;;16.40;91.37
55755;BME280;41674;52.290;-1.474;2023-08-12T08:10:56;100598.19;;;16.63;91.40
55755;BME280;41674;52.290;-1.474;2023-08-12T08:13:26;100598.33;;;16.34;92.19
55755;BME280;41674;52.290;-1.474;2023-08-12T08:15:55;100601.96;;;16.85;89.88
55755;BME280;41674;52.290;-1.474;2023-08-12T08:18:25;100596.73;;;17.86;85.58
55755;BME280;41674;52.290;-1.474;2023-08-12T08:20:54;100595.24;;;17.85;85.91
55755;BME280;41674;52.290;-1.474;2023-08-12T08:23:24;100595.11;;;17.14;90.26
55755;BME280;41674;52.290;-1.474;2023-08-12T08:25:54;100591.76;;;17.27;90.35
55755;BME280;41674;52.290;-1.474;2023-08-12T08:28:24;100591.94;;;17.01;89.99
55755;BME280;41674;52.290;-1.474;2023-08-12T08:30:52;100589.19;;;17.20;90.61
55755;BME280;41674;52.290;-1.474;2023-08-12T08:33:22;100586.34;;;17.20;90.01
55755;BME280;41674;52.290;-1.474;2023-08-12T08:35:52;100597.92;;;16.55;90.89
55755;BME280;41674;52.290;-1.474;2023-08-12T08:38:21;100589.00;;;17.55;89.08
55755;BME280;41674;52.290;-1.474;2023-08-12T08:40:50;100589.53;;;16.63;90.32
55755;BME280;41674;52.290;-1.474;2023-08-12T08:43:21;100589.15;;;16.66;90.83
55755;BME280;41674;52.290;-1.474;2023-08-12T08:45:52;100585.68;;;16.56;90.20
55755;BME280;41674;52.290;-1.474;2023-08-12T08:48:19;100587.28;;;17.03;90.24
55755;BME280;41674;52.290;-1.474;2023-08-12T08:50:49;100584.42;;;16.90;89.26
55755;BME280;41674;52.290;-1.474;2023-08-12T08:53:18;100588.08;;;17.36;88.26
55755;BME280;41674;52.290;-1.474;2023-08-12T08:55:48;100591.53;;;17.66;87.35
55755;BME280;41674;52.290;-1.474;2023-08-12T08:58:17;100595.55;;;17.59;86.87
55755;BME280;41674;52.290;-1.474;2023-08-12T09:00:46;100594.96;;;17.99;83.68
55755;BME280;41674;52.290;-1.474;2023-08-12T09:03:16;100606.43;;;18.10;81.41
55755;BME280;41674;52.290;-1.474;2023-08-12T09:05:45;100600.89;;;17.71;82.58
55755;BME280;41674;52.290;-1.474;2023-08-12T09:08:15;100597.71;;;18.60;82.14
55755;BME280;41674;52.290;-1.474;2023-08-12T09:10:45;100601.31;;;17.89;82.68
55755;BME280;41674;52.290;-1.474;2023-08-12T09:13:14;100602.85;;;17.99;85.09
55755;BME280;41674;52.290;-1.474;2023-08-12T09:15:43;100591.29;;;17.59;86.38
55755;BME280;41674;52.290;-1.474;2023-08-12T09:18:12;100587.02;;;17.78;87.29
55755;BME280;41674;52.290;-1.474;2023-08-12T09:20:42;100579.66;;;18.47;86.18
55755;BME280;41674;52.290;-1.474;2023-08-12T09:23:12;100581.03;;;18.86;84.97
55755;BME280;41674;52.290;-1.474;2023-08-12T09:25:42;100570.54;;;17.84;86.25
55755;BME280;41674;52.290;-1.474;2023-08-12T09:28:11;100574.91;;;17.46;87.94
55755;BME280;41674;52.290;-1.474;2023-08-12T09:30:40;100577.53;;;17.91;86.85
55755;BME280;41674;52.290;-1.474;2023-08-12T09:33:10;100571.05;;;17.96;86.44
55755;BME280;41674;52.290;-1.474;2023-08-12T09:35:40;100575.01;;;18.49;84.16
55755;BME280;41674;52.290;-1.474;2023-08-12T09:38:11;100558.42;;;19.15;82.56
55755;BME280;41674;52.290;-1.474;2023-08-12T09:40:38;100577.18;;;18.83;84.99
55755;BME280;41674;52.290;-1.474;2023-08-12T09:43:08;100573.78;;;17.89;84.64
55755;BME280;41674;52.290;-1.474;2023-08-12T09:45:37;100580.95;;;18.34;81.67
55755;BME280;41674;52.290;-1.474;2023-08-12T09:48:07;100577.16;;;18.27;80.44
55755;BME280;41674;52.290;-1.474;2023-08-12T09:50:36;100576.99;;;18.13;81.26
55755;BME280;41674;52.290;-1.474;2023-08-12T09:53:05;100576.38;;;18.71;79.18
55755;BME280;41674;52.290;-1.474;2023-08-12T09:55:35;100571.89;;;18.83;79.19
55755;BME280;41674;52.290;-1.474;2023-08-12T09:58:06;100569.36;;;19.26;78.18
55755;BME280;41674;52.290;-1.474;2023-08-12T10:00:34;100566.13;;;19.78;77.46
55755;BME280;41674;52.290;-1.474;2023-08-12T10:03:04;100561.11;;;19.59;76.49
55755;BME280;41674;52.290;-1.474;2023-08-12T10:05:35;100566.08;;;19.44;78.05
55755;BME280;41674;52.290;-1.474;2023-08-12T10:08:03;100559.74;;;19.35;77.60
55755;BME280;41674;52.290;-1.474;2023-08-12T10:10:35;100568.88;;;19.20;75.52
55755;BME280;41674;52.290;-1.474;2023-08-12T10:13:02;100565.96;;;19.10;77.93
55755;BME280;41674;52.290;-1.474;2023-08-12T10:15:31;100558.86;;;19.24;75.99
55755;BME280;41674;52.290;-1.474;2023-08-12T10:18:01;100553.26;;;19.70;75.73
55755;BME280;41674;52.290;-1.474;2023-08-12T10:20:31;100546.80;;;20.15;73.34
55755;BME280;41674;52.290;-1.474;2023-08-12T10:23:01;100543.19;;;20.88;70.77
55755;BME280;41674;52.290;-1.474;2023-08-12T10:25:32;100549.18;;;20.67;70.08
55755;BME280;41674;52.290;-1.474;2023-08-12T10:27:59;100544.63;;;19.43;73.84
55755;BME280;41674;52.290;-1.474;2023-08-12T10:30:29;100542.16;;;20.19;72.04
55755;BME280;41674;52.290;-1.474;2023-08-12T10:32:58;100535.41;;;20.04;71.74
55755;BME280;41674;52.290;-1.474;2023-08-12T10:35:40;100532.41;;;20.75;68.71
55755;BME280;41674;52.290;-1.474;2023-08-12T10:37:57;100520.94;;;20.48;67.28
55755;BME280;41674;52.290;-1.474;2023-08-12T10:40:26;100508.98;;;20.67;65.62
55755;BME280;41674;52.290;-1.474;2023-08-12T10:42:56;100513.97;;;19.99;67.50
55755;BME280;41674;52.290;-1.474;2023-08-12T10:48:09;100521.61;;;20.73;67.80
55755;BME280;41674;52.290;-1.474;2023-08-12T10:50:26;100532.56;;;21.02;67.49
55755;BME280;41674;52.290;-1.474;2023-08-12T10:52:54;100530.76;;;20.27;67.20
55755;BME280;41674;52.290;-1.474;2023-08-12T10:55:24;100533.63;;;20.03;67.82
55755;BME280;41674;52.290;-1.474;2023-08-12T10:57:54;100526.79;;;19.80;71.11
55755;BME280;41674;52.290;-1.474;2023-08-12T11:00:24;100526.84;;;20.42;66.83
55755;BME280;41674;52.290;-1.474;2023-08-12T11:02:53;100531.83;;;20.90;65.89
55755;BME280;41674;52.290;-1.474;2023-08-12T11:05:21;100530.66;;;20.38;64.30
55755;BME280;41674;52.290;-1.474;2023-08-12T11:07:57;100518.87;;;20.08;68.18
55755;BME280;41674;52.290;-1.474;2023-08-12T11:10:22;100525.87;;;20.47;67.29
55755;BME280;41674;52.290;-1.474;2023-08-12T11:12:55;100524.33;;;19.65;68.10
55755;BME280;41674;52.290;-1.474;2023-08-12T11:17:49;100524.25;;;19.30;68.56
55755;BME280;41674;52.290;-1.474;2023-08-12T11:20:18;100525.30;;;20.21;67.90
55755;BME280;41674;52.290;-1.474;2023-08-12T11:22:48;100535.07;;;20.16;66.10
55755;BME280;41674;52.290;-1.474;2023-08-12T11:25:17;100533.67;;;19.95;66.26
55755;BME280;41674;52.290;-1.474;2023-08-12T11:27:48;100530.52;;;20.42;65.28
55755;BME280;41674;52.290;-1.474;2023-08-12T11:30:20;100529.36;;;20.10;66.30
55755;BME280;41674;52.290;-1.474;2023-08-12T11:32:47;100528.07;;;20.37;64.86
55755;BME280;41674;52.290;-1.474;2023-08-12T11:35:17;100525.14;;;20.37;65.40
55755;BME280;41674;52.290;-1.474;2023-08-12T11:37:47;100529.96;;;20.17;66.70
55755;BME280;41674;52.290;-1.474;2023-08-12T11:40:16;100516.40;;;19.84;68.33
55755;BME280;41674;52.290;-1.474;2023-08-12T11:42:46;100506.98;;;20.41;66.46
55755;BME280;41674;52.290;-1.474;2023-08-12T11:45:15;100503.15;;;20.69;68.14
55755;BME280;41674;52.290;-1.474;2023-08-12T11:47:43;100507.09;;;21.53;63.06
55755;BME280;41674;52.290;-1.474;2023-08-12T11:50:13;100502.57;;;21.77;63.93
55755;BME280;41674;52.290;-1.474;2023-08-12T11:52:42;100505.12;;;21.61;61.55
55755;BME280;41674;52.290;-1.474;2023-08-12T11:55:12;100512.21;;;21.64;62.63
55755;BME280;41674;52.290;-1.474;2023-08-12T11:57:41;100525.20;;;20.81;62.32
55755;BME280;41674;52.290;-1.474;2023-08-12T12:00:13;100515.91;;;21.23;62.49
55755;BME280;41674;52.290;-1.474;2023-08-12T12:02:45;100511.02;;;21.70;63.15
55755;BME280;41674;52.290;-1.474;2023-08-12T12:05:11;100507.64;;;21.66;61.58
55755;BME280;41674;52.290;-1.474;2023-08-12T12:07:39;100507.46;;;21.98;59.71
55755;BME280;41674;52.290;-1.474;2023-08-12T12:10:13;100506.03;;;21.63;59.86
55755;BME280;41674;52.290;-1.474;2023-08-12T12:12:38;100503.68;;;21.34;60.91
55755;BME280;41674;52.290;-1.474;2023-08-12T12:15:08;100502.47;;;21.37;62.36
55755;BME280;41674;52.290;-1.474;2023-08-12T12:17:40;100504.56;;;21.15;61.60
55755;BME280;41674;52.290;-1.474;2023-08-12T12:20:07;100520.76;;;20.32;64.81
55755;BME280;41674;52.290;-1.474;2023-08-12T12:22:36;100532.71;;;20.04;69.78
55755;BME280;41674;52.290;-1.474;2023-08-12T12:25:07;100533.41;;;19.32;75.42
55755;BME280;41674;52.290;-1.474;2023-08-12T12:27:36;100557.71;;;18.78;78.17
55755;BME280;41674;52.290;-1.474;2023-08-12T12:30:07;100547.10;;;19.10;76.83
55755;BME280;41674;52.290;-1.474;2023-08-12T12:32:34;100543.51;;;18.94;79.67
55755;BME280;41674;52.290;-1.474;2023-08-12T12:35:06;100542.04;;;18.71;81.37
55755;BME280;41674;52.290;-1.474;2023-08-12T12:37:33;100539.61;;;18.85;80.95
55755;BME280;41674;52.290;-1.474;2023-08-12T12:40:03;100540.48;;;18.69;80.11
55755;BME280;41674;52.290;-1.474;2023-08-12T12:45:02;100528.64;;;19.28;79.01
55755;BME280;41674;52.290;-1.474;2023-08-12T12:47:31;100527.65;;;19.43;78.83
55755;BME280;41674;52.290;-1.474;2023-08-12T12:50:01;100531.99;;;19.60;77.66
55755;BME280;41674;52.290;-1.474;2023-08-12T12:52:30;100542.50;;;19.42;77.62
55755;BME280;41674;52.290;-1.474;2023-08-12T12:55:00;100525.24;;;19.92;75.67
55755;BME280;41674;52.290;-1.474;2023-08-12T12:57:29;100524.18;;;20.17;72.72
55755;BME280;41674;52.290;-1.474;2023-08-12T12:59:59;100516.53;;;20.67;72.49